Time;durP1;ratioP1;P1;durP2;ratioP2;P2;SDS_P1;SDS_P2;PMS_P1;PMS_P2;Temp;Humidity;BMP_temperature;BMP_pressure;BME280_temperature;BME280_humidity;BME280_pressure;Samples;Min_cycle;Max_cycle;Signal;HPM_P1;HPM_P2
2022/03/15 00:00:51;;;;;;;7.68;3.47;;;;;;;;;;4986823;28;20034;-65
2022/03/15 00:03:37;;;;;;;7.00;3.25;;;;;;;;;;4993559;28;20034;-66
2022/03/15 00:06:23;;;;;;;9.38;3.38;;;;;;;;;;4981391;28;21988;-67
2022/03/15 00:09:08;;;;;;;5.10;2.70;;;;;;;;;;4996075;28;20040;-66
2022/03/15 00:11:54;;;;;;;7.80;3.03;;;;;;;;;;4997325;28;20116;-66
2022/03/15 00:14:41;;;;;;;11.77;3.35;;;;;;;;;;5010320;28;20081;-65
2022/03/15 00:17:27;;;;;;;7.43;4.03;;;;;;;;;;4996916;28;20553;-71
2022/03/15 00:20:14;;;;;;;9.40;3.67;;;;;;;;;;4990779;28;20038;-61
2022/03/15 00:23:00;;;;;;;11.93;3.50;;;;;;;;;;5003814;28;20044;-61
2022/03/15 00:25:45;;;;;;;7.57;3.03;;;;;;;;;;4991957;28;20056;-63
2022/03/15 00:28:31;;;;;;;9.68;3.75;;;;;;;;;;4989224;28;20058;-61
2022/03/15 00:31:16;;;;;;;8.02;3.20;;;;;;;;;;4993382;28;20369;-62
2022/03/15 00:34:01;;;;;;;7.63;3.30;;;;;;;;;;4997048;28;20199;-62
2022/03/15 00:36:48;;;;;;;12.30;3.03;;;;;;;;;;4991159;28;20118;-60
2022/03/15 00:39:33;;;;;;;11.00;4.03;;;;;;;;;;4994317;28;20056;-61
2022/03/15 00:42:19;;;;;;;8.52;3.50;;;;;;;;;;4996433;28;20033;-61
2022/03/15 00:45:04;;;;;;;11.30;3.22;;;;;;;;;;4991720;28;20477;-61
2022/03/15 00:47:50;;;;;;;10.30;3.40;;;;;;;;;;4997575;28;20053;-59
2022/03/15 00:50:39;;;;;;;6.18;3.28;;;;;;;;;;4996921;28;20057;-60
2022/03/15 00:53:25;;;;;;;5.95;2.72;;;;;;;;;;4992640;28;20037;-59
2022/03/15 00:56:10;;;;;;;11.52;3.70;;;;;;;;;;4995633;28;20465;-61
2022/03/15 00:58:55;;;;;;;8.48;3.15;;;;;;;;;;4989088;28;20033;-60
2022/03/15 01:01:40;;;;;;;6.82;3.65;;;;;;;;;;4983529;28;20038;-62
2022/03/15 01:04:26;;;;;;;5.60;3.25;;;;;;;;;;4984628;28;20033;-63
2022/03/15 01:07:12;;;;;;;9.65;3.67;;;;;;;;;;5006328;28;20465;-60
2022/03/15 01:09:58;;;;;;;6.35;2.83;;;;;;;;;;5004533;28;20494;-61
2022/03/15 01:12:43;;;;;;;6.20;2.75;;;;;;;;;;4991366;28;20087;-62
2022/03/15 01:15:34;;;;;;;6.10;3.03;;;;;;;;;;4998986;28;20046;-62
2022/03/15 01:18:20;;;;;;;8.85;3.10;;;;;;;;;;5002945;28;20049;-63
2022/03/15 01:21:05;;;;;;;8.18;3.05;;;;;;;;;;4993753;28;20038;-64
2022/03/15 01:23:50;;;;;;;6.40;3.20;;;;;;;;;;4986505;28;20042;-64
2022/03/15 01:26:37;;;;;;;7.20;2.95;;;;;;;;;;4994657;28;20474;-63
2022/03/15 01:29:24;;;;;;;7.80;3.10;;;;;;;;;;4979445;28;20049;-62
2022/03/15 01:32:09;;;;;;;11.98;3.83;;;;;;;;;;4990781;28;20026;-60
2022/03/15 01:34:54;;;;;;;9.50;3.05;;;;;;;;;;4996048;28;20387;-62
2022/03/15 01:37:39;;;;;;;11.00;3.78;;;;;;;;;;4992973;28;20041;-65
2022/03/15 01:40:25;;;;;;;6.70;3.10;;;;;;;;;;4994370;28;20053;-63
2022/03/15 01:43:11;;;;;;;9.27;3.42;;;;;;;;;;4990481;28;20049;-63
2022/03/15 01:45:56;;;;;;;6.47;2.50;;;;;;;;;;4982645;28;20048;-66
2022/03/15 01:48:41;;;;;;;8.50;3.38;;;;;;;;;;4989101;28;20401;-60
2022/03/15 01:51:26;;;;;;;9.07;3.38;;;;;;;;;;5000315;28;20034;-70
2022/03/15 01:54:13;;;;;;;8.93;3.25;;;;;;;;;;4994940;28;20046;-71
2022/03/15 01:56:58;;;;;;;14.15;3.17;;;;;;;;;;4996438;28;20105;-70
2022/03/15 01:59:44;;;;;;;11.32;3.50;;;;;;;;;;5008270;28;20057;-73
2022/03/15 02:02:29;;;;;;;7.03;3.08;;;;;;;;;;4997688;28;20111;-71
2022/03/15 02:05:14;;;;;;;6.30;2.88;;;;;;;;;;4978054;28;20223;-71
2022/03/15 02:08:06;;;;;;;7.45;2.92;;;;;;;;;;4995543;28;20490;-66
2022/03/15 02:10:52;;;;;;;8.15;3.15;;;;;;;;;;4990951;28;20472;-65
2022/03/15 02:13:37;;;;;;;8.30;3.75;;;;;;;;;;4991152;28;20032;-65
2022/03/15 02:16:22;;;;;;;8.05;3.28;;;;;;;;;;4999235;28;20069;-65
2022/03/15 02:19:08;;;;;;;7.97;3.42;;;;;;;;;;4987853;28;20077;-64
2022/03/15 02:21:57;;;;;;;6.45;3.08;;;;;;;;;;4996489;28;20063;-63
2022/03/15 02:24:43;;;;;;;6.73;2.97;;;;;;;;;;4993146;28;20053;-62
2022/03/15 02:27:28;;;;;;;11.27;3.03;;;;;;;;;;4993488;28;20277;-71
2022/03/15 02:30:13;;;;;;;10.63;3.17;;;;;;;;;;4984701;28;20385;-73
2022/03/15 02:32:59;;;;;;;6.68;2.80;;;;;;;;;;4998860;28;20112;-72
2022/03/15 02:35:44;;;;;;;10.43;4.30;;;;;;;;;;4991374;28;20121;-74
2022/03/15 02:38:29;;;;;;;7.15;3.15;;;;;;;;;;4993944;28;20033;-72
2022/03/15 02:41:15;;;;;;;7.45;3.10;;;;;;;;;;4988754;28;20042;-72
2022/03/15 02:44:00;;;;;;;7.97;3.47;;;;;;;;;;4994292;28;20206;-71
2022/03/15 02:46:51;;;;;;;8.88;3.20;;;;;;;;;;4988963;28;20033;-68
2022/03/15 02:49:37;;;;;;;10.25;3.00;;;;;;;;;;4994815;28;20038;-66
2022/03/15 02:52:22;;;;;;;9.85;3.05;;;;;;;;;;4991630;28;20116;-66
2022/03/15 02:55:08;;;;;;;6.55;3.40;;;;;;;;;;4998995;28;20034;-68
2022/03/15 02:57:53;;;;;;;6.20;2.97;;;;;;;;;;4994324;28;20026;-66
2022/03/15 03:00:39;;;;;;;8.00;3.58;;;;;;;;;;4988328;28;20103;-64
2022/03/15 03:03:25;;;;;;;6.95;2.85;;;;;;;;;;4983426;28;20381;-64
2022/03/15 03:06:10;;;;;;;5.85;2.75;;;;;;;;;;4980360;28;20096;-62
2022/03/15 03:08:55;;;;;;;8.75;3.55;;;;;;;;;;4984316;28;20060;-63
2022/03/15 03:11:40;;;;;;;8.20;3.20;;;;;;;;;;4997366;28;20046;-60
2022/03/15 03:14:26;;;;;;;8.65;3.20;;;;;;;;;;4984658;28;20091;-61
2022/03/15 03:17:12;;;;;;;8.07;3.35;;;;;;;;;;4993509;28;20104;-62
2022/03/15 03:19:57;;;;;;;6.15;3.00;;;;;;;;;;4985037;28;20121;-61
2022/03/15 03:22:42;;;;;;;7.20;2.92;;;;;;;;;;4990570;28;20489;-70
2022/03/15 03:25:30;;;;;;;7.13;3.80;;;;;;;;;;4992574;28;20036;-60
2022/03/15 03:28:17;;;;;;;8.20;3.10;;;;;;;;;;4989415;28;20026;-60
2022/03/15 03:31:04;;;;;;;5.85;2.80;;;;;;;;;;4985585;28;20077;-61
2022/03/15 03:33:49;;;;;;;7.03;2.78;;;;;;;;;;4990557;28;20112;-60
2022/03/15 03:36:36;;;;;;;11.38;3.80;;;;;;;;;;4994341;28;20477;-60
2022/03/15 03:39:21;;;;;;;7.38;2.80;;;;;;;;;;4998188;28;20038;-61
2022/03/15 03:42:07;;;;;;;6.28;2.95;;;;;;;;;;4991029;28;20397;-62
2022/03/15 03:44:52;;;;;;;7.50;3.10;;;;;;;;;;4976800;28;20080;-59
2022/03/15 03:47:37;;;;;;;8.45;3.42;;;;;;;;;;4992820;28;20042;-60
2022/03/15 03:50:23;;;;;;;6.85;3.03;;;;;;;;;;4982395;28;20137;-60
2022/03/15 03:53:08;;;;;;;6.25;2.75;;;;;;;;;;4986908;28;20109;-62
2022/03/15 03:55:54;;;;;;;9.65;3.55;;;;;;;;;;4997528;28;20045;-61
2022/03/15 03:58:39;;;;;;;7.82;3.50;;;;;;;;;;5012061;28;20026;-67
2022/03/15 04:01:24;;;;;;;6.40;2.80;;;;;;;;;;4983413;28;20116;-63
2022/03/15 04:04:10;;;;;;;6.55;2.95;;;;;;;;;;4985457;28;20453;-63
2022/03/15 04:06:55;;;;;;;8.75;3.40;;;;;;;;;;5000081;28;20060;-65
2022/03/15 04:09:40;;;;;;;6.45;2.97;;;;;;;;;;4988879;28;20505;-61
2022/03/15 04:12:26;;;;;;;7.45;3.15;;;;;;;;;;5003725;28;20072;-62
2022/03/15 04:15:12;;;;;;;13.63;3.97;;;;;;;;;;4977610;28;20129;-65
2022/03/15 04:17:58;;;;;;;10.70;3.40;;;;;;;;;;4994818;28;20031;-60
2022/03/15 04:20:43;;;;;;;4.80;3.08;;;;;;;;;;4976431;28;20350;-61
2022/03/15 04:23:28;;;;;;;7.93;3.45;;;;;;;;;;4990583;28;20048;-60
2022/03/15 04:26:13;;;;;;;6.90;2.70;;;;;;;;;;4990204;28;20492;-59
2022/03/15 04:28:59;;;;;;;7.82;3.13;;;;;;;;;;5002148;28;20088;-61
2022/03/15 04:31:44;;;;;;;9.68;3.13;;;;;;;;;;5006906;28;20075;-62
2022/03/15 04:34:30;;;;;;;6.78;3.05;;;;;;;;;;4976958;28;20076;-63
2022/03/15 04:37:16;;;;;;;7.47;3.67;;;;;;;;;;4982949;28;20038;-62
2022/03/15 04:40:02;;;;;;;11.75;3.47;;;;;;;;;;4985124;28;20482;-65
2022/03/15 04:42:48;;;;;;;9.52;3.10;;;;;;;;;;4996689;28;20160;-63
2022/03/15 04:45:33;;;;;;;7.45;3.00;;;;;;;;;;4990975;28;20165;-66
2022/03/15 04:48:20;;;;;;;7.53;2.90;;;;;;;;;;4992134;28;20041;-63
2022/03/15 04:51:06;;;;;;;7.43;2.97;;;;;;;;;;4991076;28;20536;-64
2022/03/15 04:53:52;;;;;;;4.93;2.83;;;;;;;;;;4981881;28;20065;-66
2022/03/15 04:56:38;;;;;;;5.88;2.55;;;;;;;;;;4987043;28;20048;-60
2022/03/15 04:59:23;;;;;;;6.65;3.05;;;;;;;;;;4995151;28;20125;-62
2022/03/15 05:02:08;;;;;;;3.92;2.35;;;;;;;;;;4983300;28;20045;-63
2022/03/15 05:04:53;;;;;;;13.43;3.83;;;;;;;;;;4983783;28;20042;-61
2022/03/15 05:07:39;;;;;;;8.55;2.60;;;;;;;;;;4987109;28;20117;-61
2022/03/15 05:13:28;;;;;;;8.40;3.80;;;;;;;;;;4992806;28;20483;-70
2022/03/15 05:16:17;;;;;;;8.48;3.20;;;;;;;;;;4976692;28;20034;-62
2022/03/15 05:19:02;;;;;;;5.90;2.38;;;;;;;;;;4990918;28;20072;-61
2022/03/15 05:21:47;;;;;;;8.90;3.50;;;;;;;;;;4985944;28;20038;-63
2022/03/15 05:24:34;;;;;;;6.28;3.00;;;;;;;;;;4990684;28;20103;-64
2022/03/15 05:27:19;;;;;;;6.25;3.00;;;;;;;;;;4991208;28;20095;-65
2022/03/15 05:30:04;;;;;;;8.80;3.15;;;;;;;;;;4986410;28;20038;-72
2022/03/15 05:32:50;;;;;;;8.88;3.17;;;;;;;;;;4991221;28;20164;-64
2022/03/15 05:35:35;;;;;;;6.28;2.95;;;;;;;;;;5017083;28;20369;-64
2022/03/15 05:38:21;;;;;;;10.43;3.00;;;;;;;;;;4997315;28;20040;-63
2022/03/15 05:41:07;;;;;;;8.15;2.60;;;;;;;;;;4994865;28;20522;-64
2022/03/15 05:43:53;;;;;;;4.03;2.65;;;;;;;;;;4999943;28;20443;-63
2022/03/15 05:46:38;;;;;;;7.10;2.97;;;;;;;;;;5006475;28;20060;-63
2022/03/15 05:49:24;;;;;;;7.78;3.83;;;;;;;;;;4992654;28;20033;-61
2022/03/15 05:52:09;;;;;;;9.43;3.90;;;;;;;;;;4989219;28;20181;-63
2022/03/15 05:54:54;;;;;;;10.40;4.05;;;;;;;;;;4988910;28;20469;-61
2022/03/15 05:57:41;;;;;;;8.45;3.22;;;;;;;;;;4989852;28;20030;-64
2022/03/15 06:00:26;;;;;;;6.95;3.17;;;;;;;;;;4991406;28;20352;-60
2022/03/15 06:03:12;;;;;;;6.20;3.15;;;;;;;;;;4994593;28;20040;-62
2022/03/15 06:05:57;;;;;;;8.40;3.13;;;;;;;;;;5013199;28;20022;-60
2022/03/15 06:08:42;;;;;;;5.63;2.85;;;;;;;;;;4983226;28;20038;-73
2022/03/15 06:11:28;;;;;;;7.97;3.00;;;;;;;;;;4982862;28;20405;-59
2022/03/15 06:14:13;;;;;;;10.93;3.80;;;;;;;;;;4987126;28;20030;-62
2022/03/15 06:16:58;;;;;;;11.57;4.28;;;;;;;;;;4997486;28;20042;-59
2022/03/15 06:19:44;;;;;;;8.02;3.63;;;;;;;;;;5002609;28;20033;-59
2022/03/15 06:22:29;;;;;;;9.23;3.38;;;;;;;;;;5002181;28;20034;-61
2022/03/15 06:25:15;;;;;;;7.30;3.55;;;;;;;;;;4982612;28;20402;-63
2022/03/15 06:28:01;;;;;;;8.98;3.72;;;;;;;;;;4988040;28;20089;-58
2022/03/15 06:30:46;;;;;;;8.38;3.00;;;;;;;;;;4977970;28;20030;-62
2022/03/15 06:33:32;;;;;;;7.22;3.53;;;;;;;;;;4995295;28;20037;-62
2022/03/15 06:36:17;;;;;;;9.77;3.33;;;;;;;;;;5002468;28;20057;-62
2022/03/15 06:39:04;;;;;;;9.80;4.07;;;;;;;;;;5007445;28;20026;-62
2022/03/15 06:41:51;;;;;;;12.77;4.78;;;;;;;;;;4992676;28;20037;-61
2022/03/15 06:44:36;;;;;;;11.25;4.25;;;;;;;;;;4978244;28;20030;-63
2022/03/15 06:47:22;;;;;;;11.48;3.90;;;;;;;;;;5013235;28;20029;-62
2022/03/15 06:50:08;;;;;;;11.50;3.80;;;;;;;;;;4994407;28;20026;-60
2022/03/15 06:52:53;;;;;;;10.80;4.30;;;;;;;;;;4992252;28;20386;-60
2022/03/15 06:55:39;;;;;;;9.82;3.78;;;;;;;;;;4975257;28;20120;-61
2022/03/15 06:58:24;;;;;;;13.77;4.25;;;;;;;;;;4992646;28;20037;-61
2022/03/15 07:01:09;;;;;;;7.93;3.67;;;;;;;;;;5006047;28;20046;-61
2022/03/15 07:03:55;;;;;;;11.65;4.03;;;;;;;;;;4991361;28;20025;-61
2022/03/15 07:06:40;;;;;;;9.75;3.78;;;;;;;;;;4993488;28;20413;-63
2022/03/15 07:09:25;;;;;;;15.88;4.65;;;;;;;;;;4999252;28;20034;-62
2022/03/15 07:12:11;;;;;;;10.65;3.47;;;;;;;;;;4991101;28;20025;-64
2022/03/15 07:14:56;;;;;;;11.55;3.90;;;;;;;;;;4989821;28;20068;-62
2022/03/15 07:17:48;;;;;;;8.48;3.78;;;;;;;;;;4983577;28;20498;-60
2022/03/15 07:20:34;;;;;;;13.77;4.65;;;;;;;;;;5000000;28;20037;-61
2022/03/15 07:23:19;;;;;;;10.35;4.13;;;;;;;;;;4987197;28;20113;-61
2022/03/15 07:26:04;;;;;;;14.68;5.22;;;;;;;;;;4989762;28;20137;-60
2022/03/15 07:28:50;;;;;;;9.05;4.13;;;;;;;;;;4995164;28;20141;-61
2022/03/15 07:31:35;;;;;;;16.42;4.68;;;;;;;;;;4984142;28;20026;-61
2022/03/15 07:34:20;;;;;;;11.40;4.15;;;;;;;;;;4995348;28;20361;-62
2022/03/15 07:37:06;;;;;;;9.35;4.63;;;;;;;;;;4984121;28;20084;-62
2022/03/15 07:39:51;;;;;;;12.82;4.30;;;;;;;;;;4988622;28;20132;-74
2022/03/15 07:42:36;;;;;;;10.40;4.35;;;;;;;;;;4997702;28;20053;-62
2022/03/15 07:45:22;;;;;;;9.93;3.58;;;;;;;;;;4981500;28;20363;-61
2022/03/15 07:48:07;;;;;;;13.05;4.28;;;;;;;;;;4989795;28;20040;-64
2022/03/15 07:50:52;;;;;;;10.07;3.58;;;;;;;;;;4992996;28;20052;-62
2022/03/15 07:53:38;;;;;;;16.90;4.25;;;;;;;;;;4985512;28;20522;-60
2022/03/15 07:56:23;;;;;;;11.52;3.70;;;;;;;;;;5004121;28;20068;-61
2022/03/15 07:59:08;;;;;;;12.27;4.53;;;;;;;;;;4991683;28;20029;-60
2022/03/15 08:01:54;;;;;;;10.00;4.00;;;;;;;;;;4982459;28;20041;-75
2022/03/15 08:04:39;;;;;;;10.90;4.65;;;;;;;;;;4989975;28;20370;-77
2022/03/15 08:07:24;;;;;;;10.13;5.20;;;;;;;;;;4985490;28;20033;-74
2022/03/15 08:10:10;;;;;;;11.45;4.35;;;;;;;;;;4989392;28;20037;-76
2022/03/15 08:12:55;;;;;;;7.72;4.32;;;;;;;;;;4992257;28;20044;-76
2022/03/15 08:15:41;;;;;;;16.15;4.38;;;;;;;;;;4998351;28;20096;-64
2022/03/15 08:18:26;;;;;;;14.27;4.07;;;;;;;;;;4986577;28;20037;-64
2022/03/15 08:21:11;;;;;;;10.13;3.80;;;;;;;;;;5002504;28;20038;-63
2022/03/15 08:23:57;;;;;;;11.23;4.30;;;;;;;;;;4990164;28;20073;-63
2022/03/15 08:26:43;;;;;;;10.68;3.75;;;;;;;;;;4992314;28;20034;-62
2022/03/15 08:29:30;;;;;;;12.18;3.78;;;;;;;;;;4986136;28;20445;-64
2022/03/15 08:32:16;;;;;;;12.50;3.35;;;;;;;;;;4992784;28;20141;-65
2022/03/15 08:35:01;;;;;;;7.85;3.53;;;;;;;;;;4995524;28;20034;-72
2022/03/15 08:37:50;;;;;;;9.75;4.07;;;;;;;;;;5008569;28;20036;-73
2022/03/15 08:40:35;;;;;;;11.33;3.43;;;;;;;;;;4991618;28;20136;-73
2022/03/15 08:43:20;;;;;;;10.30;3.42;;;;;;;;;;4994685;28;20033;-78
2022/03/15 08:46:06;;;;;;;7.97;2.95;;;;;;;;;;4990908;28;20316;-74
2022/03/15 08:48:51;;;;;;;6.63;3.00;;;;;;;;;;5008245;28;20067;-75
2022/03/15 08:51:36;;;;;;;7.65;3.38;;;;;;;;;;4992509;28;20030;-80
2022/03/15 08:54:22;;;;;;;9.52;3.95;;;;;;;;;;4992739;28;20108;-64
2022/03/15 08:57:08;;;;;;;9.82;2.85;;;;;;;;;;5001077;28;20045;-60
2022/03/15 08:59:54;;;;;;;7.10;3.05;;;;;;;;;;4994475;28;20113;-61
2022/03/15 09:02:39;;;;;;;10.52;3.20;;;;;;;;;;4992804;28;20038;-60
2022/03/15 09:05:26;;;;;;;7.03;3.17;;;;;;;;;;4990605;28;20480;-63
2022/03/15 09:08:11;;;;;;;8.77;3.10;;;;;;;;;;4989339;28;20077;-62
2022/03/15 09:10:56;;;;;;;7.80;3.03;;;;;;;;;;4994349;28;20100;-65
2022/03/15 09:13:42;;;;;;;5.18;3.15;;;;;;;;;;4990663;28;20419;-69
2022/03/15 09:16:27;;;;;;;11.40;3.47;;;;;;;;;;4993719;28;20021;-70
2022/03/15 09:19:13;;;;;;;9.35;2.65;;;;;;;;;;5000727;28;20037;-65
2022/03/15 09:22:02;;;;;;;7.93;3.45;;;;;;;;;;4993273;28;20076;-69
2022/03/15 09:24:47;;;;;;;8.77;2.33;;;;;;;;;;4994438;28;20061;-69
2022/03/15 09:27:32;;;;;;;7.13;2.75;;;;;;;;;;4992888;28;20457;-68
2022/03/15 09:30:18;;;;;;;6.93;2.88;;;;;;;;;;4994421;28;20586;-74
2022/03/15 09:33:03;;;;;;;6.53;3.10;;;;;;;;;;4992610;28;20483;-63
2022/03/15 09:35:49;;;;;;;6.80;3.17;;;;;;;;;;4991084;28;20113;-65
2022/03/15 09:38:34;;;;;;;9.18;3.20;;;;;;;;;;4999480;28;20582;-64
2022/03/15 09:41:19;;;;;;;11.68;3.53;;;;;;;;;;4993064;28;20033;-63
2022/03/15 09:44:06;;;;;;;9.88;3.92;;;;;;;;;;4991987;28;20025;-64
2022/03/15 09:46:52;;;;;;;7.65;3.13;;;;;;;;;;4983133;28;20042;-63
2022/03/15 09:49:38;;;;;;;6.40;3.22;;;;;;;;;;4993652;28;20560;-58
2022/03/15 09:52:23;;;;;;;6.07;2.95;;;;;;;;;;5009062;28;20560;-62
2022/03/15 09:55:10;;;;;;;6.88;2.92;;;;;;;;;;4993282;28;20034;-64
2022/03/15 09:57:55;;;;;;;6.75;2.88;;;;;;;;;;4987347;28;20136;-62
2022/03/15 10:00:41;;;;;;;5.93;3.00;;;;;;;;;;4993391;28;20041;-63
2022/03/15 10:03:27;;;;;;;7.60;3.25;;;;;;;;;;4982594;28;21219;-64
2022/03/15 10:06:15;;;;;;;5.38;2.70;;;;;;;;;;4990122;28;20033;-67
2022/03/15 10:09:00;;;;;;;5.25;2.70;;;;;;;;;;4988266;28;21232;-80
2022/03/15 10:11:45;;;;;;;5.63;2.65;;;;;;;;;;4994090;28;20054;-76
2022/03/15 10:14:44;;;;;;;8.88;2.88;;;;;;;;;;4983986;28;20196;-80
2022/03/15 10:17:40;;;;;;;4.97;2.97;;;;;;;;;;5002809;28;20046;-76
2022/03/15 10:20:28;;;;;;;6.40;2.83;;;;;;;;;;5005535;28;20109;-74
2022/03/15 10:23:16;;;;;;;5.55;3.10;;;;;;;;;;4998695;28;20065;-75
2022/03/15 10:26:04;;;;;;;6.72;2.65;;;;;;;;;;4993175;28;20030;-63
2022/03/15 10:28:49;;;;;;;6.55;3.70;;;;;;;;;;5001735;28;20116;-69
2022/03/15 10:31:35;;;;;;;5.18;3.25;;;;;;;;;;4993121;28;20408;-67
2022/03/15 10:34:21;;;;;;;7.22;2.88;;;;;;;;;;5004178;28;20038;-70
2022/03/15 10:37:06;;;;;;;11.93;6.78;;;;;;;;;;4991860;28;20105;-67
2022/03/15 10:39:51;;;;;;;9.77;4.28;;;;;;;;;;4993699;28;20477;-69
2022/03/15 10:42:38;;;;;;;10.95;3.30;;;;;;;;;;4990873;28;20267;-77
2022/03/15 10:45:23;;;;;;;7.10;3.20;;;;;;;;;;4986876;28;20029;-68
2022/03/15 10:48:19;;;;;;;7.15;3.42;;;;;;;;;;5005394;28;20058;-67
2022/03/15 10:51:06;;;;;;;9.80;3.20;;;;;;;;;;5003399;28;20266;-70
2022/03/15 10:54:00;;;;;;;9.77;3.90;;;;;;;;;;4987533;28;20033;-70
2022/03/15 10:56:58;;;;;;;6.90;3.30;;;;;;;;;;4993467;28;20033;-70
2022/03/15 10:59:44;;;;;;;5.30;3.30;;;;;;;;;;4987647;28;20536;-68
2022/03/15 11:02:30;;;;;;;6.97;3.72;;;;;;;;;;4989763;28;20478;-65
2022/03/15 11:05:29;;;;;;;10.20;4.13;;;;;;;;;;4990347;28;20034;-61
2022/03/15 11:08:15;;;;;;;8.65;3.08;;;;;;;;;;4987346;28;20535;-61
2022/03/15 11:11:06;;;;;;;7.45;3.15;;;;;;;;;;4989357;28;20057;-62
2022/03/15 11:13:57;;;;;;;5.07;3.00;;;;;;;;;;4994995;28;20065;-60
2022/03/15 11:16:45;;;;;;;7.75;3.60;;;;;;;;;;4992326;28;20084;-60
2022/03/15 11:19:32;;;;;;;5.47;3.03;;;;;;;;;;4978377;28;20038;-64
2022/03/15 11:22:23;;;;;;;4.95;3.42;;;;;;;;;;4974792;28;20041;-65
2022/03/15 11:25:08;;;;;;;8.60;3.90;;;;;;;;;;4984375;28;20038;-65
2022/03/15 11:27:54;;;;;;;9.43;3.85;;;;;;;;;;5004114;28;20067;-63
2022/03/15 11:30:40;;;;;;;6.50;3.33;;;;;;;;;;5003455;28;20033;-65
2022/03/15 11:33:27;;;;;;;7.57;4.03;;;;;;;;;;4998127;28;20033;-64
2022/03/15 11:36:12;;;;;;;6.57;4.57;;;;;;;;;;4981323;28;20270;-63
2022/03/15 11:38:57;;;;;;;10.07;4.75;;;;;;;;;;5000248;28;20063;-64
2022/03/15 11:41:43;;;;;;;6.43;3.55;;;;;;;;;;4992243;28;20099;-60
2022/03/15 11:44:35;;;;;;;6.72;4.30;;;;;;;;;;4999474;28;20037;-62
2022/03/15 11:47:29;;;;;;;7.78;3.58;;;;;;;;;;4976220;28;20120;-62
2022/03/15 11:50:35;;;;;;;7.80;3.63;;;;;;;;;;4994498;28;20026;-60
2022/03/15 11:53:30;;;;;;;8.35;4.25;;;;;;;;;;4976955;28;20197;-62
2022/03/15 11:56:34;;;;;;;10.25;3.88;;;;;;;;;;5008795;28;20386;-63
2022/03/15 11:59:20;;;;;;;11.00;4.78;;;;;;;;;;5002756;28;20029;-63
2022/03/15 12:02:05;;;;;;;7.57;4.93;;;;;;;;;;4990438;28;20048;-63
2022/03/15 12:04:50;;;;;;;17.73;8.60;;;;;;;;;;4991921;28;20034;-64
2022/03/15 12:07:48;;;;;;;19.42;8.55;;;;;;;;;;4984627;28;20124;-67
2022/03/15 12:10:37;;;;;;;10.80;6.47;;;;;;;;;;5004147;28;20064;-66
2022/03/15 12:13:43;;;;;;;12.52;4.78;;;;;;;;;;4988734;28;20033;-63
2022/03/15 12:16:41;;;;;;;9.65;5.47;;;;;;;;;;5007750;28;20046;-62
2022/03/15 12:22:21;;;;;;;11.30;5.40;;;;;;;;;;4992612;28;20092;-64
2022/03/15 12:25:10;;;;;;;17.50;6.57;;;;;;;;;;4989852;28;20684;-64
2022/03/15 12:28:01;;;;;;;13.95;6.65;;;;;;;;;;4991537;28;20583;-63
2022/03/15 12:30:53;;;;;;;10.43;6.07;;;;;;;;;;4999804;28;20372;-65
2022/03/15 12:33:39;;;;;;;10.15;5.40;;;;;;;;;;5009338;28;20264;-65
2022/03/15 12:36:34;;;;;;;12.68;6.22;;;;;;;;;;5010045;28;20026;-65
2022/03/15 12:39:21;;;;;;;15.18;5.82;;;;;;;;;;4994406;28;20034;-64
2022/03/15 12:42:11;;;;;;;12.23;5.75;;;;;;;;;;4994394;28;20444;-62
2022/03/15 12:44:59;;;;;;;15.02;6.97;;;;;;;;;;4995311;28;20041;-63
2022/03/15 12:47:47;;;;;;;10.35;6.45;;;;;;;;;;4991079;28;20034;-61
2022/03/15 12:50:33;;;;;;;17.20;5.85;;;;;;;;;;4989219;28;20238;-62
2022/03/15 12:53:18;;;;;;;10.75;5.55;;;;;;;;;;4990064;28;20538;-58
2022/03/15 12:56:03;;;;;;;9.93;5.55;;;;;;;;;;4990287;28;20033;-58
2022/03/15 12:58:49;;;;;;;14.48;7.45;;;;;;;;;;4987904;28;20068;-60
2022/03/15 13:01:36;;;;;;;13.35;7.32;;;;;;;;;;4996709;28;20508;-60
2022/03/15 13:04:21;;;;;;;13.75;6.50;;;;;;;;;;4999063;28;20032;-72
2022/03/15 13:07:06;;;;;;;10.48;6.35;;;;;;;;;;4986009;28;20071;-70
2022/03/15 13:09:55;;;;;;;14.57;7.18;;;;;;;;;;4986270;28;20041;-62
2022/03/15 13:12:42;;;;;;;12.68;6.47;;;;;;;;;;4981884;28;20034;-63
2022/03/15 13:15:27;;;;;;;10.93;6.68;;;;;;;;;;5001371;28;20034;-69
2022/03/15 13:18:16;;;;;;;15.35;7.15;;;;;;;;;;4993707;28;20041;-70
2022/03/15 13:21:08;;;;;;;13.57;6.78;;;;;;;;;;4988267;28;20030;-69
2022/03/15 13:23:53;;;;;;;16.10;7.88;;;;;;;;;;4997733;28;20352;-66
2022/03/15 13:26:39;;;;;;;14.05;7.90;;;;;;;;;;5008306;28;20084;-66
2022/03/15 13:29:28;;;;;;;12.20;6.60;;;;;;;;;;4994314;28;20030;-74
2022/03/15 13:32:19;;;;;;;14.85;8.07;;;;;;;;;;4987867;28;20358;-63
2022/03/15 13:35:05;;;;;;;16.60;7.60;;;;;;;;;;5000071;28;20041;-65
2022/03/15 13:37:50;;;;;;;16.42;6.75;;;;;;;;;;4994517;28;20465;-63
2022/03/15 13:40:35;;;;;;;13.80;6.43;;;;;;;;;;4992536;28;20113;-63
2022/03/15 13:43:22;;;;;;;9.38;6.53;;;;;;;;;;4990461;28;20030;-63
2022/03/15 13:46:08;;;;;;;13.18;6.88;;;;;;;;;;4993797;28;20068;-63
2022/03/15 13:48:53;;;;;;;12.65;6.03;;;;;;;;;;4993691;28;20065;-61
2022/03/15 13:51:40;;;;;;;11.93;6.15;;;;;;;;;;5002246;28;20470;-62
2022/03/15 13:54:25;;;;;;;12.00;6.70;;;;;;;;;;4993538;28;20040;-61
2022/03/15 13:57:11;;;;;;;12.88;7.07;;;;;;;;;;4991033;28;20100;-63
2022/03/15 14:00:05;;;;;;;15.48;7.45;;;;;;;;;;4993192;28;20066;-64
2022/03/15 14:02:51;;;;;;;15.10;8.05;;;;;;;;;;4990107;28;20472;-63
2022/03/15 14:05:36;;;;;;;12.15;6.90;;;;;;;;;;4998276;28;20125;-64
2022/03/15 14:08:21;;;;;;;14.10;7.05;;;;;;;;;;5000312;28;20022;-61
2022/03/15 14:11:09;;;;;;;11.57;7.03;;;;;;;;;;4993324;28;20038;-62
2022/03/15 14:14:00;;;;;;;11.73;7.20;;;;;;;;;;4987227;28;20083;-63
2022/03/15 14:16:50;;;;;;;10.50;6.72;;;;;;;;;;4997727;28;20038;-60
2022/03/15 14:19:49;;;;;;;13.77;6.50;;;;;;;;;;4992803;28;20037;-63
2022/03/15 14:22:42;;;;;;;13.57;7.28;;;;;;;;;;4989756;28;20052;-65
2022/03/15 14:25:29;;;;;;;17.08;5.95;;;;;;;;;;4990213;28;20034;-65
2022/03/15 14:28:16;;;;;;;10.18;6.03;;;;;;;;;;4990131;28;20419;-74
2022/03/15 14:31:03;;;;;;;13.02;6.25;;;;;;;;;;4993565;28;20354;-73
2022/03/15 14:33:56;;;;;;;16.40;6.90;;;;;;;;;;4987135;28;20048;-76
2022/03/15 14:36:42;;;;;;;12.90;6.22;;;;;;;;;;4992731;28;20033;-76
2022/03/15 14:39:31;;;;;;;10.48;5.18;;;;;;;;;;5004500;28;20029;-74
2022/03/15 14:42:17;;;;;;;10.88;5.78;;;;;;;;;;4992690;28;20406;-71
2022/03/15 14:45:11;;;;;;;14.13;5.20;;;;;;;;;;4994105;28;20034;-64
2022/03/15 14:47:56;;;;;;;8.70;5.18;;;;;;;;;;4990265;28;20109;-63
2022/03/15 14:50:42;;;;;;;11.18;5.82;;;;;;;;;;4992085;28;20461;-64
2022/03/15 14:53:34;;;;;;;12.32;5.40;;;;;;;;;;4992585;28;20441;-64
2022/03/15 14:56:20;;;;;;;8.25;5.07;;;;;;;;;;4992414;28;20077;-65
2022/03/15 14:59:10;;;;;;;15.60;9.30;;;;;;;;;;4986502;28;20065;-62
2022/03/15 15:02:00;;;;;;;19.98;10.57;;;;;;;;;;4992299;28;20520;-70
2022/03/15 15:04:49;;;;;;;11.95;6.20;;;;;;;;;;4998457;28;20030;-61
2022/03/15 15:07:35;;;;;;;10.65;5.90;;;;;;;;;;4994071;28;20492;-62
2022/03/15 15:10:21;;;;;;;9.02;5.07;;;;;;;;;;4989557;28;20029;-61
2022/03/15 15:13:07;;;;;;;9.77;5.60;;;;;;;;;;4999872;28;20072;-59
2022/03/15 15:15:53;;;;;;;12.52;5.03;;;;;;;;;;4991794;28;20034;-60
2022/03/15 15:18:41;;;;;;;11.50;6.35;;;;;;;;;;4986385;28;21208;-65
2022/03/15 15:21:27;;;;;;;10.93;5.07;;;;;;;;;;4985275;28;20481;-66
2022/03/15 15:24:12;;;;;;;11.65;5.82;;;;;;;;;;4984111;28;20034;-66
2022/03/15 15:27:05;;;;;;;12.20;6.05;;;;;;;;;;4985146;28;20052;-65
2022/03/15 15:29:52;;;;;;;10.77;5.90;;;;;;;;;;4990028;28;20416;-67
2022/03/15 15:32:37;;;;;;;11.15;5.95;;;;;;;;;;4987138;28;20116;-66
2022/03/15 15:35:24;;;;;;;9.48;5.22;;;;;;;;;;4983244;28;20034;-64
2022/03/15 15:38:10;;;;;;;10.02;5.65;;;;;;;;;;4982542;28;20055;-74
2022/03/15 15:40:55;;;;;;;10.05;5.68;;;;;;;;;;4996901;28;20045;-61
2022/03/15 15:43:43;;;;;;;11.48;4.85;;;;;;;;;;5006511;28;20092;-60
2022/03/15 15:46:29;;;;;;;10.88;5.88;;;;;;;;;;4973910;28;20034;-61
2022/03/15 15:49:16;;;;;;;7.63;4.57;;;;;;;;;;4976124;28;20026;-62
2022/03/15 15:52:01;;;;;;;8.57;4.57;;;;;;;;;;4976511;28;20035;-64
2022/03/15 15:54:51;;;;;;;8.80;4.28;;;;;;;;;;4993068;28;20041;-60
2022/03/15 15:57:36;;;;;;;6.38;3.88;;;;;;;;;;4992844;28;20030;-67
2022/03/15 16:00:22;;;;;;;7.20;3.80;;;;;;;;;;4990101;28;20351;-69
2022/03/15 16:03:08;;;;;;;6.28;3.35;;;;;;;;;;5006262;28;20040;-69
2022/03/15 16:05:53;;;;;;;5.30;3.72;;;;;;;;;;4986505;28;20060;-67
2022/03/15 16:08:40;;;;;;;7.10;3.30;;;;;;;;;;4980914;28;20038;-68
2022/03/15 16:11:27;;;;;;;9.57;3.65;;;;;;;;;;4977990;28;20034;-69
2022/03/15 16:14:13;;;;;;;9.38;4.07;;;;;;;;;;4993239;28;20251;-72
2022/03/15 16:16:58;;;;;;;8.82;3.72;;;;;;;;;;4996198;28;20354;-62
2022/03/15 16:19:44;;;;;;;8.70;3.58;;;;;;;;;;4990061;28;20045;-62
2022/03/15 16:22:30;;;;;;;10.60;3.65;;;;;;;;;;5012551;28;20104;-62
2022/03/15 16:25:15;;;;;;;8.80;4.03;;;;;;;;;;4993713;28;20030;-62
2022/03/15 16:28:00;;;;;;;6.80;3.83;;;;;;;;;;4991734;28;20044;-62
2022/03/15 16:30:45;;;;;;;9.88;3.53;;;;;;;;;;4985815;28;20493;-61
2022/03/15 16:33:31;;;;;;;7.65;3.42;;;;;;;;;;4981712;28;20061;-61
2022/03/15 16:36:18;;;;;;;11.38;3.60;;;;;;;;;;4995398;28;20044;-61
2022/03/15 16:39:06;;;;;;;9.63;3.88;;;;;;;;;;4985630;28;20040;-63